createdAt,value
2023-05-05T00:01:09.156Z,79.40
2023-05-05T00:03:35.782Z,80.92
2023-05-05T00:06:02.760Z,80.54
2023-05-05T00:08:30.037Z,79.58
2023-05-05T00:10:57.602Z,80.26
2023-05-05T00:13:24.663Z,79.46
2023-05-05T00:15:53.308Z,78.33
2023-05-05T00:18:21.202Z,81.63
2023-05-05T00:20:48.692Z,79.61
2023-05-05T00:23:16.138Z,78.44
2023-05-05T00:25:42.857Z,79.97
2023-05-05T00:28:09.606Z,81.35
2023-05-05T00:30:36.396Z,81.68
2023-05-05T00:33:03.158Z,82.01
2023-05-05T00:35:29.808Z,81.26
2023-05-05T00:37:56.484Z,81.56
2023-05-05T00:40:23.458Z,82.04
2023-05-05T00:42:53.256Z,81.66
2023-05-05T00:45:20.329Z,80.84
2023-05-05T00:47:53.552Z,80.13
2023-05-05T00:50:30.981Z,80.84
2023-05-05T00:53:03.340Z,81.09
2023-05-05T00:55:30.913Z,82.49
2023-05-05T00:57:58.845Z,82.11
2023-05-05T01:00:26.428Z,83.09
2023-05-05T01:02:53.794Z,82.60
2023-05-05T01:05:23.429Z,82.19
2023-05-05T01:08:21.607Z,82.77
2023-05-05T01:11:20.901Z,80.93
2023-05-05T01:13:58.629Z,81.35
2023-05-05T01:16:27.305Z,82.85
2023-05-05T01:19:00.034Z,81.99
2023-05-05T01:21:32.616Z,83.52
2023-05-05T01:24:05.135Z,83.14
2023-05-05T01:26:45.575Z,83.13
2023-05-05T01:29:34.458Z,83.50
2023-05-05T01:32:13.246Z,83.81
2023-05-05T01:34:53.346Z,83.37
2023-05-05T01:37:44.135Z,82.72
2023-05-05T01:40:14.248Z,81.62
2023-05-05T01:42:43.424Z,82.54
2023-05-05T01:45:14.465Z,83.74
2023-05-05T01:47:43.882Z,84.89
2023-05-05T01:50:12.178Z,86.13
2023-05-05T01:52:41.077Z,85.32
2023-05-05T01:55:09.763Z,84.89
2023-05-05T01:57:38.996Z,85.51
2023-05-05T02:00:07.334Z,85.60
2023-05-05T02:02:37.367Z,83.89
2023-05-05T02:05:05.623Z,86.10
2023-05-05T02:07:34.486Z,85.30
2023-05-05T02:10:03.131Z,86.64
2023-05-05T02:12:31.768Z,85.49
2023-05-05T02:15:00.275Z,86.25
2023-05-05T02:17:27.783Z,86.17
2023-05-05T02:19:55.812Z,87.19
2023-05-05T02:22:22.942Z,86.75
2023-05-05T02:24:49.543Z,86.44
2023-05-05T02:27:18.929Z,86.28
2023-05-05T02:29:52.709Z,86.45
2023-05-05T02:32:28.675Z,87.29
2023-05-05T02:34:58.494Z,87.23
2023-05-05T02:37:29.700Z,86.48
2023-05-05T02:40:05.916Z,86.48
2023-05-05T02:42:39.741Z,87.70
2023-05-05T02:45:12.729Z,87.81
2023-05-05T02:47:39.604Z,88.33
2023-05-05T02:50:08.288Z,88.79
2023-05-05T02:52:35.930Z,88.65
2023-05-05T02:55:04.481Z,89.21
2023-05-05T02:57:57.413Z,87.95
2023-05-05T03:00:34.259Z,88.61
2023-05-05T03:03:13.905Z,88.13
2023-05-05T03:05:45.896Z,87.07
2023-05-05T03:08:30.224Z,88.24
2023-05-05T03:11:11.509Z,87.94
2023-05-05T03:13:42.794Z,88.97
2023-05-05T03:16:11.713Z,89.28
2023-05-05T03:18:39.824Z,88.30
2023-05-05T03:21:10.134Z,88.26
2023-05-05T03:23:37.456Z,88.64
2023-05-05T03:26:04.015Z,89.69
2023-05-05T03:28:30.540Z,89.06
2023-05-05T03:30:57.430Z,87.37
2023-05-05T03:33:24.015Z,88.40
2023-05-05T03:35:50.538Z,88.39
2023-05-05T03:38:17.715Z,88.89
2023-05-05T03:40:45.003Z,89.26
2023-05-05T03:43:12.079Z,88.22
2023-05-05T03:45:38.726Z,88.84
2023-05-05T03:48:05.684Z,89.75
2023-05-05T03:50:32.282Z,90.58
2023-05-05T03:52:58.742Z,90.28
2023-05-05T03:55:25.758Z,90.87
2023-05-05T03:57:52.535Z,89.27
2023-05-05T04:00:19.428Z,89.16
2023-05-05T04:02:45.931Z,89.57
2023-05-05T04:05:12.585Z,89.66
2023-05-05T04:07:39.216Z,89.98
2023-05-05T04:10:06.934Z,91.01
2023-05-05T04:12:33.975Z,90.56
2023-05-05T04:15:00.426Z,90.74
2023-05-05T04:17:27.073Z,91.31
2023-05-05T04:19:53.892Z,92.10
2023-05-05T04:22:20.453Z,91.25
2023-05-05T04:24:47.465Z,91.12
2023-05-05T04:27:14.235Z,90.65
2023-05-05T04:29:41.265Z,90.67
2023-05-05T04:32:07.912Z,91.88
2023-05-05T04:34:34.374Z,91.96
2023-05-05T04:37:01.108Z,91.32
2023-05-05T04:39:27.709Z,91.42
2023-05-05T04:41:54.249Z,90.54
2023-05-05T04:44:20.909Z,90.85
2023-05-05T04:46:47.398Z,90.20
2023-05-05T04:49:13.921Z,89.42
2023-05-05T04:51:43.494Z,88.86
2023-05-05T04:54:10.064Z,88.32
2023-05-05T04:56:37.045Z,88.57
2023-05-05T04:59:03.848Z,88.36
2023-05-05T05:01:31.686Z,88.54
2023-05-05T05:03:58.325Z,88.42
2023-05-05T05:06:24.934Z,87.40
2023-05-05T05:08:52.028Z,86.62
2023-05-05T05:11:18.672Z,87.00
2023-05-05T05:13:46.181Z,87.01
2023-05-05T05:16:12.992Z,87.74
2023-05-05T05:18:39.985Z,87.05
2023-05-05T05:21:07.302Z,87.42
2023-05-05T05:23:33.871Z,87.21
2023-05-05T05:26:00.365Z,86.70
2023-05-05T05:28:26.887Z,86.34
2023-05-05T05:30:53.869Z,87.88
2023-05-05T05:33:20.881Z,87.36
2023-05-05T05:35:47.522Z,87.30
2023-05-05T05:38:14.424Z,85.55
2023-05-05T05:40:41.270Z,86.09
2023-05-05T05:43:08.169Z,85.95
2023-05-05T05:45:34.749Z,85.02
2023-05-05T05:48:01.155Z,83.18
2023-05-05T05:50:28.737Z,82.28
2023-05-05T05:52:55.960Z,81.60
2023-05-05T05:55:22.376Z,81.88
2023-05-05T05:57:49.146Z,83.91
2023-05-05T06:00:16.043Z,82.65
2023-05-05T06:02:43.078Z,82.19
2023-05-05T06:05:10.298Z,83.25
2023-05-05T06:07:37.186Z,82.09
2023-05-05T06:10:22.884Z,82.98
2023-05-05T06:12:52.420Z,81.22
2023-05-05T06:15:18.962Z,81.50
2023-05-05T06:17:45.786Z,80.15
2023-05-05T06:20:13.775Z,80.85
2023-05-05T06:22:40.314Z,78.90
2023-05-05T06:25:07.108Z,80.44
2023-05-05T06:27:34.104Z,81.89
2023-05-05T06:30:00.670Z,80.58
2023-05-05T06:32:27.332Z,79.39
2023-05-05T06:34:53.765Z,81.33
2023-05-05T06:37:20.470Z,79.24
2023-05-05T06:39:46.922Z,81.35
2023-05-05T06:42:13.496Z,80.40
2023-05-05T06:44:40.425Z,78.94
2023-05-05T06:47:07.205Z,80.11
2023-05-05T06:49:33.646Z,78.91
2023-05-05T06:52:00.167Z,79.46
2023-05-05T06:54:26.888Z,79.54
2023-05-05T06:56:53.484Z,78.22
2023-05-05T06:59:19.975Z,79.88
2023-05-05T07:01:47.416Z,78.79
2023-05-05T07:04:13.830Z,78.31
2023-05-05T07:06:40.688Z,78.37
2023-05-05T07:09:07.225Z,75.65
2023-05-05T07:11:34.372Z,74.34
2023-05-05T07:14:01.080Z,76.45
2023-05-05T07:16:27.969Z,76.01
2023-05-05T07:18:55.205Z,73.36
2023-05-05T07:21:21.985Z,72.71
2023-05-05T07:23:48.591Z,75.94
2023-05-05T07:26:15.405Z,76.31
2023-05-05T07:28:43.084Z,74.42
2023-05-05T07:31:09.808Z,74.56
2023-05-05T07:33:36.483Z,72.37
2023-05-05T07:36:03.276Z,74.05
2023-05-05T07:38:29.819Z,72.74
2023-05-05T07:40:56.350Z,70.84
2023-05-05T07:43:22.957Z,70.05
2023-05-05T07:45:49.731Z,70.76
2023-05-05T07:48:17.242Z,70.06
2023-05-05T07:50:44.788Z,68.05
2023-05-05T07:53:14.882Z,68.02
2023-05-05T07:55:42.238Z,71.05
2023-05-05T07:58:10.945Z,69.54
2023-05-05T08:00:38.287Z,67.92
2023-05-05T08:03:04.975Z,67.07
2023-05-05T08:05:31.740Z,69.23
2023-05-05T08:07:58.739Z,71.52
2023-05-05T08:10:25.377Z,67.46
2023-05-05T08:12:54.287Z,66.70
2023-05-05T08:15:21.527Z,69.51
2023-05-05T08:17:53.092Z,69.29
2023-05-05T08:20:20.512Z,68.73
2023-05-05T08:22:48.277Z,68.94
2023-05-05T08:25:15.383Z,68.11
2023-05-05T08:27:43.145Z,66.79
2023-05-05T08:30:10.355Z,64.30
2023-05-05T08:32:38.295Z,66.39
2023-05-05T08:35:06.326Z,65.42
2023-05-05T08:37:34.142Z,67.71
2023-05-05T08:40:00.748Z,68.49
2023-05-05T08:42:37.211Z,66.42
2023-05-05T08:45:07.116Z,66.70
2023-05-05T08:47:35.477Z,66.57
2023-05-05T08:50:02.332Z,66.79
2023-05-05T08:52:37.845Z,67.20
2023-05-05T08:55:09.102Z,66.24
2023-05-05T08:57:57.252Z,64.86
2023-05-05T09:00:27.245Z,64.27
2023-05-05T09:02:57.140Z,62.85
2023-05-05T09:05:25.006Z,64.74
2023-05-05T09:07:52.244Z,63.33
2023-05-05T09:10:18.963Z,64.85
2023-05-05T09:12:46.541Z,65.93
2023-05-05T09:15:14.714Z,64.33
2023-05-05T09:17:42.285Z,64.78
2023-05-05T09:20:12.170Z,64.01
2023-05-05T09:22:46.534Z,64.35
2023-05-05T09:25:15.538Z,64.69
2023-05-05T09:27:45.927Z,63.82
2023-05-05T09:30:16.671Z,64.07
2023-05-05T09:32:51.407Z,62.24
2023-05-05T09:35:19.400Z,61.40
2023-05-05T09:37:46.875Z,61.97
2023-05-05T09:40:15.620Z,62.56
2023-05-05T09:42:42.763Z,61.24
2023-05-05T09:45:18.494Z,60.92
2023-05-05T09:47:46.896Z,61.10
2023-05-05T09:50:16.056Z,59.50
2023-05-05T09:52:43.233Z,58.18
2023-05-05T09:55:17.668Z,57.85
2023-05-05T09:57:44.437Z,59.05
2023-05-05T10:00:11.374Z,60.12
2023-05-05T10:02:39.819Z,59.34
2023-05-05T10:05:12.557Z,58.50
2023-05-05T10:07:41.185Z,56.83
2023-05-05T10:10:14.262Z,56.17
2023-05-05T10:12:42.118Z,56.53
2023-05-05T10:15:10.721Z,59.33
2023-05-05T10:17:58.373Z,59.89
2023-05-05T10:20:33.290Z,60.58
2023-05-05T10:23:05.466Z,62.76
2023-05-05T10:25:41.563Z,64.17
2023-05-05T10:28:11.817Z,63.72
2023-05-05T10:30:44.602Z,66.62
2023-05-05T10:35:53.825Z,68.86
2023-05-05T10:38:21.463Z,71.39
2023-05-05T10:40:49.078Z,75.33
2023-05-05T10:43:15.682Z,76.48
2023-05-05T10:45:43.710Z,77.31
2023-05-05T10:48:18.639Z,79.17
2023-05-05T10:50:51.668Z,83.61
2023-05-05T10:53:28.528Z,85.97
2023-05-05T10:56:16.469Z,88.73
2023-05-05T10:58:55.565Z,91.85
2023-05-05T11:01:36.419Z,93.52
2023-05-05T11:04:24.787Z,91.46
2023-05-05T11:07:13.442Z,89.31
2023-05-05T11:10:14.638Z,88.25
2023-05-05T11:12:54.766Z,87.88
2023-05-05T11:15:27.321Z,85.24
2023-05-05T11:17:56.044Z,80.52
2023-05-05T11:20:35.026Z,81.14
2023-05-05T11:23:02.443Z,82.06
2023-05-05T11:25:35.343Z,80.30
2023-05-05T11:28:19.310Z,78.81
2023-05-05T11:30:54.805Z,78.16
2023-05-05T11:33:31.012Z,77.28
2023-05-05T11:36:08.943Z,74.19
2023-05-05T11:38:41.353Z,73.46
2023-05-05T11:41:26.670Z,71.53
2023-05-05T11:44:15.879Z,73.83
2023-05-05T11:46:51.436Z,73.45
2023-05-05T11:49:31.618Z,69.78
2023-05-05T11:52:02.762Z,69.23
2023-05-05T11:54:30.848Z,66.80
2023-05-05T11:56:59.580Z,68.92
2023-05-05T11:59:26.842Z,70.61
2023-05-05T12:01:53.740Z,71.28
2023-05-05T12:04:21.898Z,68.23
2023-05-05T12:06:49.058Z,68.73
2023-05-05T12:09:16.405Z,64.28
2023-05-05T12:11:57.102Z,64.79
2023-05-05T12:14:24.495Z,64.53
2023-05-05T12:16:55.651Z,64.25
2023-05-05T12:19:22.798Z,64.05
2023-05-05T12:21:50.227Z,63.62
2023-05-05T12:24:17.101Z,65.05
2023-05-05T12:26:43.993Z,64.44
2023-05-05T12:29:10.803Z,63.68
2023-05-05T12:31:42.150Z,63.42
2023-05-05T12:34:10.685Z,64.00
2023-05-05T12:36:37.497Z,65.26
2023-05-05T12:39:07.455Z,63.82
2023-05-05T12:41:34.658Z,67.20
2023-05-05T12:44:03.167Z,67.60
2023-05-05T12:46:30.966Z,67.47
2023-05-05T12:49:05.704Z,70.15
2023-05-05T12:51:36.441Z,71.09
2023-05-05T12:54:11.311Z,74.44
2023-05-05T12:56:48.118Z,77.38
2023-05-05T12:59:21.090Z,82.28
2023-05-05T13:01:53.224Z,82.35
2023-05-05T13:04:21.651Z,84.11
2023-05-05T13:06:49.655Z,87.10
2023-05-05T13:09:34.350Z,87.63
2023-05-05T13:12:04.595Z,84.50
2023-05-05T13:14:31.809Z,83.13
2023-05-05T13:16:58.835Z,79.26
2023-05-05T13:19:26.278Z,78.90
2023-05-05T13:21:53.578Z,75.09
2023-05-05T13:24:31.185Z,80.19
2023-05-05T13:27:05.475Z,75.12
2023-05-05T13:29:33.163Z,77.65
2023-05-05T13:32:00.145Z,77.90
2023-05-05T13:34:27.051Z,79.53
2023-05-05T13:36:53.678Z,78.59
2023-05-05T13:39:20.288Z,75.40
2023-05-05T13:41:46.735Z,75.65
2023-05-05T13:44:14.029Z,78.05
2023-05-05T13:46:42.514Z,79.57
2023-05-05T13:49:09.304Z,79.35
2023-05-05T13:51:36.863Z,80.24
2023-05-05T13:54:04.109Z,79.39
2023-05-05T13:56:31.068Z,79.73
2023-05-05T13:58:57.828Z,80.44
2023-05-05T14:01:24.616Z,82.34
2023-05-05T14:03:51.560Z,81.17
2023-05-05T14:06:18.283Z,82.68
2023-05-05T14:08:46.249Z,83.26
2023-05-05T14:11:13.696Z,82.24
2023-05-05T14:13:40.546Z,86.01
2023-05-05T14:16:06.909Z,84.55
2023-05-05T14:18:34.099Z,83.17
2023-05-05T14:21:00.612Z,83.20
2023-05-05T14:23:27.396Z,86.34
2023-05-05T14:25:54.538Z,86.19
2023-05-05T14:28:21.022Z,85.23
2023-05-05T14:30:47.579Z,86.01
2023-05-05T14:33:14.027Z,84.92
2023-05-05T14:35:40.896Z,82.55
2023-05-05T14:38:26.691Z,78.97
2023-05-05T14:40:53.396Z,83.62
2023-05-05T14:43:21.831Z,84.82
2023-05-05T14:45:48.772Z,84.44
2023-05-05T14:48:15.782Z,82.24
2023-05-05T14:50:42.753Z,80.27
2023-05-05T14:53:09.607Z,73.27
2023-05-05T14:55:37.056Z,74.55
2023-05-05T14:58:03.658Z,75.52
2023-05-05T15:00:30.131Z,77.48
2023-05-05T15:02:56.798Z,72.79
2023-05-05T15:05:23.271Z,73.85
2023-05-05T15:07:49.861Z,75.99
2023-05-05T15:10:16.524Z,78.98
2023-05-05T15:12:43.500Z,73.80
2023-05-05T15:15:10.592Z,74.61
2023-05-05T15:17:38.649Z,73.92
2023-05-05T15:20:06.678Z,71.47
2023-05-05T15:22:33.379Z,72.72
2023-05-05T15:25:00.244Z,73.37
2023-05-05T15:27:27.026Z,73.13
2023-05-05T15:29:54.412Z,75.60
2023-05-05T15:32:21.202Z,75.07
2023-05-05T15:34:50.223Z,77.84
2023-05-05T15:37:17.099Z,79.75
2023-05-05T15:39:43.699Z,77.63
2023-05-05T15:42:10.204Z,78.30
2023-05-05T15:44:38.182Z,73.98
2023-05-05T15:47:06.308Z,68.70
2023-05-05T15:49:32.810Z,69.22
2023-05-05T15:51:59.652Z,67.98
2023-05-05T15:54:26.374Z,67.49
2023-05-05T15:56:52.980Z,67.94
2023-05-05T15:59:19.531Z,67.38
2023-05-05T16:01:46.659Z,64.32
2023-05-05T16:04:13.867Z,67.67
2023-05-05T16:06:40.874Z,68.25
2023-05-05T16:09:07.506Z,69.94
2023-05-05T16:11:34.183Z,69.47
2023-05-05T16:14:00.970Z,69.39
2023-05-05T16:16:27.602Z,71.22
2023-05-05T16:18:54.734Z,71.19
2023-05-05T16:21:21.169Z,70.28
2023-05-05T16:23:47.703Z,70.48
2023-05-05T16:26:14.196Z,72.06
2023-05-05T16:28:40.785Z,75.06
2023-05-05T16:31:09.425Z,77.16
2023-05-05T16:33:40.675Z,79.19
2023-05-05T16:36:09.969Z,80.34
2023-05-05T16:38:37.326Z,80.76
2023-05-05T16:41:04.104Z,81.53
2023-05-05T16:43:30.854Z,80.91
2023-05-05T16:45:57.568Z,81.55
2023-05-05T16:48:24.544Z,82.06
2023-05-05T16:50:51.180Z,80.25
2023-05-05T16:53:18.046Z,80.85
2023-05-05T16:55:44.565Z,79.48
2023-05-05T16:58:12.385Z,80.44
2023-05-05T17:00:39.403Z,79.77
2023-05-05T17:03:06.233Z,79.33
2023-05-05T17:05:32.790Z,79.73
2023-05-05T17:07:59.303Z,80.10
2023-05-05T17:10:25.774Z,80.90
2023-05-05T17:12:52.714Z,79.77
2023-05-05T17:15:19.093Z,81.07
2023-05-05T17:17:45.810Z,82.12
2023-05-05T17:20:12.991Z,83.01
2023-05-05T17:22:40.275Z,84.04
2023-05-05T17:25:07.362Z,85.42
2023-05-05T17:27:34.048Z,86.06
2023-05-05T17:32:27.187Z,85.41
2023-05-05T17:34:54.301Z,86.32
2023-05-05T17:37:20.973Z,85.27
2023-05-05T17:39:47.539Z,85.99
2023-05-05T17:42:14.218Z,86.01
2023-05-05T17:44:40.895Z,85.00
2023-05-05T17:47:07.768Z,83.79
2023-05-05T17:49:34.715Z,82.56
2023-05-05T17:52:01.378Z,81.48
2023-05-05T17:54:29.922Z,82.32
2023-05-05T17:56:57.362Z,82.76
2023-05-05T17:59:23.872Z,84.14
2023-05-05T18:01:50.528Z,83.14
2023-05-05T18:04:17.439Z,84.57
2023-05-05T18:06:44.171Z,83.37
2023-05-05T18:09:11.982Z,84.21
2023-05-05T18:11:38.494Z,83.96
2023-05-05T18:14:05.381Z,85.19
2023-05-05T18:16:31.879Z,85.06
2023-05-05T18:18:58.896Z,84.85
2023-05-05T18:21:25.781Z,84.53
2023-05-05T18:23:57.297Z,84.77
2023-05-05T18:26:28.634Z,84.49
2023-05-05T18:28:55.070Z,84.51
2023-05-05T18:31:22.165Z,85.87
2023-05-05T18:33:48.896Z,85.35
2023-05-05T18:36:15.705Z,85.62
2023-05-05T18:38:42.182Z,85.77
2023-05-05T18:41:08.850Z,86.53
2023-05-05T18:43:36.229Z,86.90
2023-05-05T18:46:02.888Z,88.11
2023-05-05T18:48:30.530Z,87.88
2023-05-05T18:51:04.126Z,87.14
2023-05-05T18:53:31.805Z,87.50
2023-05-05T18:55:59.027Z,87.83
2023-05-05T18:58:26.596Z,88.31
2023-05-05T19:00:53.383Z,88.32
2023-05-05T19:03:20.204Z,89.58
2023-05-05T19:05:46.982Z,90.25
2023-05-05T19:08:13.926Z,89.82
2023-05-05T19:10:40.803Z,90.45
2023-05-05T19:13:09.812Z,90.40
2023-05-05T19:15:36.722Z,91.89
2023-05-05T19:18:05.525Z,92.38
2023-05-05T19:20:32.480Z,92.85
2023-05-05T19:23:03.578Z,93.30
2023-05-05T19:25:31.356Z,91.51
2023-05-05T19:27:58.258Z,91.42
2023-05-05T19:30:26.383Z,92.58
2023-05-05T19:32:53.476Z,94.03
2023-05-05T19:35:20.044Z,94.68
2023-05-05T19:37:47.030Z,94.68
2023-05-05T19:40:14.062Z,95.28
2023-05-05T19:42:41.202Z,95.33
2023-05-05T19:45:08.156Z,96.18
2023-05-05T19:47:35.717Z,96.02
2023-05-05T19:50:02.512Z,96.19
2023-05-05T19:52:29.127Z,96.28
2023-05-05T19:54:55.989Z,96.44
2023-05-05T19:57:22.699Z,96.78
2023-05-05T19:59:49.548Z,96.20
2023-05-05T20:02:21.841Z,96.20
2023-05-05T20:04:49.504Z,96.96
2023-05-05T20:07:17.771Z,97.38
2023-05-05T20:09:45.099Z,97.16
2023-05-05T20:12:12.172Z,96.29
2023-05-05T20:14:39.558Z,96.69
2023-05-05T20:17:06.029Z,96.54
2023-05-05T20:19:32.848Z,96.21
2023-05-05T20:21:59.489Z,96.21
2023-05-05T20:24:28.882Z,97.82
2023-05-05T20:26:55.587Z,98.33
2023-05-05T20:29:22.571Z,98.63
2023-05-05T20:31:49.190Z,99.41
2023-05-05T20:34:16.261Z,100.00
2023-05-05T20:36:43.132Z,100.00
2023-05-05T20:39:15.243Z,100.00
2023-05-05T20:41:42.017Z,100.00
2023-05-05T20:44:11.449Z,100.00
2023-05-05T20:46:38.046Z,100.00
2023-05-05T20:49:04.613Z,100.00
2023-05-05T20:51:34.166Z,100.00
2023-05-05T20:54:02.109Z,100.00
2023-05-05T20:56:28.760Z,100.00
2023-05-05T20:58:56.655Z,100.00
2023-05-05T21:01:24.477Z,100.00
2023-05-05T21:03:51.391Z,100.00
2023-05-05T21:06:19.512Z,100.00
2023-05-05T21:08:47.126Z,100.00
2023-05-05T21:11:13.643Z,100.00
2023-05-05T21:13:40.252Z,100.00
2023-05-05T21:16:06.814Z,100.00
2023-05-05T21:18:33.390Z,100.00
2023-05-05T21:21:01.196Z,100.00
2023-05-05T21:23:28.281Z,100.00
2023-05-05T21:25:55.369Z,100.00
2023-05-05T21:28:21.939Z,100.00
2023-05-05T21:31:10.364Z,100.00
2023-05-05T21:33:37.449Z,100.00
2023-05-05T21:36:04.519Z,100.00
2023-05-05T21:38:31.104Z,100.00
2023-05-05T21:40:58.431Z,100.00
2023-05-05T21:43:26.647Z,100.00
2023-05-05T21:46:03.368Z,100.00
2023-05-05T21:48:31.277Z,100.00
2023-05-05T21:50:57.976Z,100.00
2023-05-05T21:53:24.812Z,100.00
2023-05-05T21:55:51.906Z,100.00
2023-05-05T21:58:18.305Z,100.00
2023-05-05T22:00:44.972Z,100.00
2023-05-05T22:03:11.521Z,100.00
2023-05-05T22:05:38.493Z,100.00
2023-05-05T22:08:05.272Z,100.00
2023-05-05T22:10:32.125Z,100.00
2023-05-05T22:12:58.802Z,100.00
2023-05-05T22:15:29.850Z,100.00
2023-05-05T22:17:59.448Z,100.00
2023-05-05T22:20:26.191Z,100.00
2023-05-05T22:22:52.966Z,100.00
2023-05-05T22:25:19.673Z,100.00
2023-05-05T22:27:46.849Z,100.00
2023-05-05T22:30:14.008Z,100.00
2023-05-05T22:32:43.283Z,100.00
2023-05-05T22:35:09.947Z,100.00
2023-05-05T22:37:37.137Z,100.00
2023-05-05T22:40:04.668Z,100.00
2023-05-05T22:42:31.161Z,100.00
2023-05-05T22:44:57.796Z,100.00
2023-05-05T22:47:24.397Z,100.00
2023-05-05T22:49:50.926Z,100.00
2023-05-05T22:52:17.932Z,100.00
2023-05-05T22:54:44.573Z,100.00
2023-05-05T22:57:11.555Z,100.00
2023-05-05T22:59:38.154Z,100.00
2023-05-05T23:02:05.108Z,100.00
2023-05-05T23:04:31.786Z,100.00
2023-05-05T23:06:58.768Z,100.00
2023-05-05T23:09:25.657Z,100.00
2023-05-05T23:11:52.373Z,100.00
2023-05-05T23:14:19.479Z,100.00
2023-05-05T23:16:46.428Z,100.00
2023-05-05T23:19:13.709Z,100.00
2023-05-05T23:21:51.933Z,100.00
2023-05-05T23:24:19.686Z,100.00
2023-05-05T23:26:46.084Z,100.00
2023-05-05T23:29:12.767Z,100.00
2023-05-05T23:31:39.445Z,100.00
2023-05-05T23:34:06.246Z,100.00
2023-05-05T23:36:32.782Z,100.00
2023-05-05T23:38:59.364Z,100.00
2023-05-05T23:41:25.961Z,100.00
2023-05-05T23:43:53.381Z,100.00
2023-05-05T23:46:19.927Z,100.00
2023-05-05T23:48:46.565Z,100.00
2023-05-05T23:51:13.220Z,100.00
2023-05-05T23:53:40.056Z,100.00
2023-05-05T23:56:07.486Z,100.00
2023-05-05T23:58:34.463Z,100.00
